»·PEaware :: DAL213 KLAS-KSFO

DAL213 :: KLAS-KSFO

FLIGHT INFORMATION

Flight Status: Arrived
Operator:
Delta Air Lines
More flights by this operator :: More flights under this callsign
Pilot: Nicolas L. (9332)
Aircraft: BOEING 737-800
(B738)
More flights by this aircraft type
Origin: KLAS McCarran Intl
United States
Destination: KSFO San Francisco Intl
United States
More flights between these airports :: More routes between these airports
Route: SHEAD1 KENNO RUSME DYAMD3
File this flight plan on PilotEdge
Remarks: Live Streaming on Twith "DAL213" and YT
Altitude:
(Current/Filed)
34,000ft
Speed:
(Current/Filed)
400kts
Departed: 10-Jun-18 07:45 PM
Arrived: 10-Jun-18 08:55 PM
Distance/Time
Traveled:
359nm/1:10
Distance/Time
To Go:
Arrived

Flight Plot

Page will automatically refresh every two minutes.

Flight plan parsing failed; only flown route is shown


Map Options




Map Legend


Flown Route
Filed Route
Departure Airport
Arrival Airport
Navaid (VOR, NDB)
Fix

Horizontal Profiles

Position Reports

Time Latitude Longitude Heading Altitude Ground
Speed
10-Jun-18 19:26 36.079805 -115.135329 0 2190ft 0kts
10-Jun-18 19:27 36.079805 -115.135329 0 2190ft 0kts
10-Jun-18 19:28 36.079805 -115.135329 0 2190ft 0kts
10-Jun-18 19:29 36.079805 -115.135329 0 2190ft 0kts
10-Jun-18 19:30 36.079805 -115.135329 0 2190ft 0kts
10-Jun-18 19:31 36.079805 -115.135329 0 2190ft 0kts
10-Jun-18 19:32 36.079805 -115.135329 0 2190ft 0kts
10-Jun-18 19:33 36.079662 -115.135329 359 2190ft 2kts
10-Jun-18 19:34 36.078860 -115.135329 359 2190ft 2kts
10-Jun-18 19:35 36.078732 -115.135329 359 2190ft 0kts
10-Jun-18 19:36 36.078732 -115.135329 359 2190ft 0kts
10-Jun-18 19:37 36.078732 -115.135329 359 2190ft 0kts
10-Jun-18 19:38 36.078734 -115.135329 359 2190ft 0kts
10-Jun-18 19:39 36.077542 -115.132923 90 2190ft 17kts
10-Jun-18 19:40 36.077527 -115.126137 90 2190ft 22kts
10-Jun-18 19:41 36.077466 -115.121468 138 2190ft 0kts
10-Jun-18 19:42 36.077464 -115.121466 138 2190ft 0kts
10-Jun-18 19:43 36.076424 -115.121627 270 2190ft 0kts
10-Jun-18 19:44 36.076424 -115.121629 270 2190ft 0kts
10-Jun-18 19:45 36.076413 -115.124373 267 2190ft 62kts
10-Jun-18 19:46 36.077096 -115.174042 269 3338ft 173kts
10-Jun-18 19:47 36.072523 -115.244416 240 5191ft 233kts
10-Jun-18 19:48 36.009964 -115.284873 200 7459ft 281kts
10-Jun-18 19:49 35.942180 -115.337405 224 9022ft 293kts
10-Jun-18 19:50 35.889783 -115.413089 252 10258ft 295kts
10-Jun-18 19:51 35.888009 -115.524270 272 11031ft 344kts
10-Jun-18 19:52 35.890336 -115.643081 272 11036ft 346kts
10-Jun-18 19:53 35.892419 -115.763280 272 13562ft 354kts
10-Jun-18 19:54 35.894413 -115.886332 271 16245ft 364kts
10-Jun-18 19:55 35.925415 -116.002902 312 18838ft 375kts
10-Jun-18 19:56 36.002598 -116.093469 314 21096ft 389kts
10-Jun-18 19:57 36.082679 -116.186203 314 23160ft 400kts
10-Jun-18 19:58 36.165253 -116.281701 314 25032ft 409kts
10-Jun-18 19:59 36.249140 -116.378983 314 26686ft 417kts
10-Jun-18 20:00 36.334665 -116.478480 313 28169ft 424kts
10-Jun-18 20:01 36.421039 -116.579295 313 29411ft 429kts
10-Jun-18 20:02 36.508297 -116.681458 313 30422ft 434kts
10-Jun-18 20:03 36.602318 -116.776234 324 31551ft 436kts
10-Jun-18 20:04 36.705193 -116.854991 324 32654ft 433kts
10-Jun-18 20:05 36.807290 -116.932869 324 33747ft 428kts
10-Jun-18 20:06 36.908937 -117.010532 324 33963ft 425kts
10-Jun-18 20:07 37.009333 -117.087481 324 33982ft 422kts
10-Jun-18 20:08 37.109058 -117.164162 324 33984ft 420kts
10-Jun-18 20:09 37.208813 -117.241087 324 33994ft 419kts
10-Jun-18 20:10 37.307461 -117.318417 317 33999ft 415kts
10-Jun-18 20:11 37.335459 -117.446315 260 34034ft 406kts
10-Jun-18 20:12 37.338427 -117.586800 279 34006ft 405kts
10-Jun-18 20:13 37.357357 -117.726547 280 33997ft 405kts
10-Jun-18 20:14 37.376519 -117.866255 280 34009ft 404kts
10-Jun-18 20:15 37.392474 -117.982122 280 34009ft 404kts
10-Jun-18 20:16 37.411487 -118.121147 280 33996ft 404kts
10-Jun-18 20:17 37.430424 -118.260901 280 33981ft 404kts
10-Jun-18 20:18 37.449130 -118.400233 279 33976ft 404kts
10-Jun-18 20:19 37.470762 -118.562979 279 34019ft 404kts
10-Jun-18 20:20 37.486137 -118.679740 279 34096ft 405kts
10-Jun-18 20:21 37.504357 -118.819319 279 34157ft 406kts
10-Jun-18 20:22 37.522581 -118.960274 279 34168ft 407kts
10-Jun-18 20:23 37.540678 -119.101619 279 34155ft 407kts
10-Jun-18 20:24 37.558534 -119.242450 279 34137ft 407kts
10-Jun-18 20:25 37.576224 -119.383363 279 34124ft 407kts
10-Jun-18 20:26 37.593772 -119.524545 279 34111ft 406kts
10-Jun-18 20:27 37.611063 -119.665077 279 34086ft 406kts
10-Jun-18 20:28 37.628218 -119.805929 278 34047ft 405kts
10-Jun-18 20:29 37.645115 -119.946080 278 33945ft 403kts
10-Jun-18 20:30 37.661349 -120.082112 278 31976ft 391kts
10-Jun-18 20:31 37.677702 -120.220556 278 29994ft 402kts
10-Jun-18 20:32 37.694188 -120.361585 278 27981ft 412kts
10-Jun-18 20:33 37.687136 -120.501205 264 25939ft 390kts
10-Jun-18 20:34 37.672248 -120.633527 263 24050ft 371kts
10-Jun-18 20:35 37.657547 -120.759446 263 22254ft 355kts
10-Jun-18 20:36 37.642943 -120.880754 263 20519ft 346kts
10-Jun-18 20:37 37.628096 -120.999929 262 18817ft 340kts
10-Jun-18 20:38 37.612540 -121.116068 262 17145ft 333kts
10-Jun-18 20:39 37.597165 -121.230417 262 15424ft 329kts
10-Jun-18 20:40 37.583613 -121.342312 264 13858ft 312kts
10-Jun-18 20:41 37.571558 -121.446849 264 12379ft 291kts
10-Jun-18 20:42 37.555221 -121.543868 258 11055ft 274kts
10-Jun-18 20:43 37.538292 -121.634789 260 10488ft 261kts
10-Jun-18 20:44 37.521998 -121.724995 255 9812ft 263kts
10-Jun-18 20:45 37.504806 -121.813421 259 9079ft 259kts
10-Jun-18 20:46 37.496106 -121.903428 280 7643ft 259kts
10-Jun-18 20:47 37.509237 -121.991686 282 5979ft 247kts
10-Jun-18 20:48 37.522856 -122.073699 283 4722ft 229kts
10-Jun-18 20:49 37.536655 -122.149377 283 3675ft 209kts
10-Jun-18 20:50 37.553212 -122.208860 294 2507ft 168kts
10-Jun-18 20:51 37.570363 -122.260919 268 1702ft 152kts
10-Jun-18 20:52 37.562916 -122.312054 259 1491ft 146kts
10-Jun-18 20:53 37.571251 -122.354530 292 967ft 120kts
10-Jun-18 20:54 37.594647 -122.385293 339 398ft 135kts
10-Jun-18 20:55 37.624915 -122.368802 26 22ft 13kts
10-Jun-18 20:56 37.627171 -122.371856 258 22ft 13kts
10-Jun-18 20:57 37.622968 -122.374902 208 22ft 19kts
10-Jun-18 20:58 37.619779 -122.379169 228 22ft 16kts
10-Jun-18 20:59 37.618289 -122.380767 236 22ft 0kts
10-Jun-18 21:00 37.618289 -122.380767 236 22ft 0kts
10-Jun-18 21:01 37.618289 -122.380767 236 22ft 0kts
10-Jun-18 21:02 37.618289 -122.380767 236 22ft 0kts
10-Jun-18 21:03 37.618289 -122.380767 236 22ft 0kts
10-Jun-18 21:04 37.618289 -122.380767 236 22ft 0kts
10-Jun-18 21:05 37.618289 -122.380767 236 22ft 0kts
10-Jun-18 21:06 37.618289 -122.380767 236 22ft 0kts
10-Jun-18 21:07 37.618289 -122.380767 236 22ft 0kts

Navigation Log

Ident Type
Flight plan parsing failed, navigation log unavailable